sensor_id;sensor_type;location;lat;lon;timestamp;pressure;altitude;pressure_sealevel;temperature;humidity
72096;BME280;59968;51.084;16.748;2022-10-22T00:01:18;99925.41;;;12.16;71.93
72096;BME280;59968;51.084;16.748;2022-10-22T00:03:47;99927.50;;;12.21;71.98
72096;BME280;59968;51.084;16.748;2022-10-22T00:06:15;99924.10;;;12.26;71.86
72096;BME280;59968;51.084;16.748;2022-10-22T00:08:43;99927.95;;;12.30;72.04
72096;BME280;59968;51.084;16.748;2022-10-22T00:11:14;99928.52;;;12.32;71.90
72096;BME280;59968;51.084;16.748;2022-10-22T00:13:43;99926.71;;;12.33;71.92
72096;BME280;59968;51.084;16.748;2022-10-22T00:16:11;99926.83;;;12.32;72.01
72096;BME280;59968;51.084;16.748;2022-10-22T00:18:40;99928.30;;;12.34;72.18
72096;BME280;59968;51.084;16.748;2022-10-22T00:21:09;99920.38;;;12.34;72.28
72096;BME280;59968;51.084;16.748;2022-10-22T00:23:40;99918.08;;;12.38;72.24
72096;BME280;59968;51.084;16.748;2022-10-22T00:26:10;99915.90;;;12.41;72.26
72096;BME280;59968;51.084;16.748;2022-10-22T00:28:38;99907.39;;;12.45;72.20
72096;BME280;59968;51.084;16.748;2022-10-22T00:31:06;99904.76;;;12.50;72.06
72096;BME280;59968;51.084;16.748;2022-10-22T00:33:35;99895.27;;;12.52;72.03
72096;BME280;59968;51.084;16.748;2022-10-22T00:36:07;99893.84;;;12.54;71.98
72096;BME280;59968;51.084;16.748;2022-10-22T00:38:35;99898.63;;;12.57;71.85
72096;BME280;59968;51.084;16.748;2022-10-22T00:41:03;99892.02;;;12.57;72.00
72096;BME280;59968;51.084;16.748;2022-10-22T00:43:31;99893.35;;;12.56;71.93
72096;BME280;59968;51.084;16.748;2022-10-22T00:46:00;99885.10;;;12.57;71.86
72096;BME280;59968;51.084;16.748;2022-10-22T00:48:30;99877.34;;;12.57;71.87
72096;BME280;59968;51.084;16.748;2022-10-22T00:51:03;99871.66;;;12.56;71.86
72096;BME280;59968;51.084;16.748;2022-10-22T00:53:42;99864.15;;;12.54;71.87
72096;BME280;59968;51.084;16.748;2022-10-22T00:56:13;99861.82;;;12.50;71.92
72096;BME280;59968;51.084;16.748;2022-10-22T00:58:47;99860.45;;;12.44;72.22
72096;BME280;59968;51.084;16.748;2022-10-22T01:01:19;99859.60;;;12.42;72.33
72096;BME280;59968;51.084;16.748;2022-10-22T01:03:48;99859.48;;;12.40;72.40
72096;BME280;59968;51.084;16.748;2022-10-22T01:06:26;99860.52;;;12.40;72.46
72096;BME280;59968;51.084;16.748;2022-10-22T01:11:52;99868.30;;;12.38;72.55
72096;BME280;59968;51.084;16.748;2022-10-22T01:23:48;99909.15;;;12.30;73.16
72096;BME280;59968;51.084;16.748;2022-10-22T01:27:15;99891.91;;;12.32;73.18
72096;BME280;59968;51.084;16.748;2022-10-22T01:29:18;99879.98;;;12.31;73.23
72096;BME280;59968;51.084;16.748;2022-10-22T01:31:59;99883.08;;;12.31;73.19
72096;BME280;59968;51.084;16.748;2022-10-22T01:34:29;99887.14;;;12.38;73.01
72096;BME280;59968;51.084;16.748;2022-10-22T01:36:58;99873.77;;;12.39;72.95
72096;BME280;59968;51.084;16.748;2022-10-22T01:39:28;99865.98;;;12.37;73.04
72096;BME280;59968;51.084;16.748;2022-10-22T01:41:57;99866.58;;;12.39;73.10
72096;BME280;59968;51.084;16.748;2022-10-22T01:50:12;99865.86;;;12.33;73.27
72096;BME280;59968;51.084;16.748;2022-10-22T01:57:59;99858.08;;;12.30;73.49
72096;BME280;59968;51.084;16.748;2022-10-22T02:00:30;99849.73;;;12.28;73.58
72096;BME280;59968;51.084;16.748;2022-10-22T02:03:06;99846.89;;;12.27;73.66
72096;BME280;59968;51.084;16.748;2022-10-22T02:05:45;99845.05;;;12.23;73.86
72096;BME280;59968;51.084;16.748;2022-10-22T02:08:24;99840.89;;;12.23;73.93
72096;BME280;59968;51.084;16.748;2022-10-22T02:10:56;99836.33;;;12.22;74.19
72096;BME280;59968;51.084;16.748;2022-10-22T02:13:47;99838.38;;;12.21;74.48
72096;BME280;59968;51.084;16.748;2022-10-22T02:16:24;99844.39;;;12.20;74.34
72096;BME280;59968;51.084;16.748;2022-10-22T02:18:55;99854.27;;;12.20;74.38
72096;BME280;59968;51.084;16.748;2022-10-22T02:21:44;99854.48;;;12.19;74.41
72096;BME280;59968;51.084;16.748;2022-10-22T02:24:12;99861.36;;;12.16;74.45
72096;BME280;59968;51.084;16.748;2022-10-22T02:29:31;99863.58;;;12.14;74.45
72096;BME280;59968;51.084;16.748;2022-10-22T02:32:02;99862.23;;;12.13;74.46
72096;BME280;59968;51.084;16.748;2022-10-22T02:34:32;99865.73;;;12.09;74.63
72096;BME280;59968;51.084;16.748;2022-10-22T02:37:02;99869.47;;;12.06;74.64
72096;BME280;59968;51.084;16.748;2022-10-22T02:39:31;99870.26;;;12.06;74.67
72096;BME280;59968;51.084;16.748;2022-10-22T02:42:01;99866.53;;;12.08;74.89
72096;BME280;59968;51.084;16.748;2022-10-22T02:44:30;99852.20;;;12.10;75.05
72096;BME280;59968;51.084;16.748;2022-10-22T02:46:58;99840.83;;;12.13;75.25
72096;BME280;59968;51.084;16.748;2022-10-22T02:49:27;99836.83;;;12.15;75.42
72096;BME280;59968;51.084;16.748;2022-10-22T02:51:55;99835.09;;;12.16;75.50
72096;BME280;59968;51.084;16.748;2022-10-22T02:54:24;99838.48;;;12.17;75.70
72096;BME280;59968;51.084;16.748;2022-10-22T02:56:52;99842.02;;;12.21;75.65
72096;BME280;59968;51.084;16.748;2022-10-22T02:59:20;99837.33;;;12.27;75.52
72096;BME280;59968;51.084;16.748;2022-10-22T03:01:48;99849.22;;;12.31;75.42
72096;BME280;59968;51.084;16.748;2022-10-22T03:04:17;99839.65;;;12.33;75.38
72096;BME280;59968;51.084;16.748;2022-10-22T03:06:45;99848.52;;;12.34;75.51
72096;BME280;59968;51.084;16.748;2022-10-22T03:09:15;99855.77;;;12.36;75.56
72096;BME280;59968;51.084;16.748;2022-10-22T03:11:49;99855.91;;;12.37;75.60
72096;BME280;59968;51.084;16.748;2022-10-22T03:14:18;99855.81;;;12.39;75.47
72096;BME280;59968;51.084;16.748;2022-10-22T03:16:47;99853.39;;;12.43;75.57
72096;BME280;59968;51.084;16.748;2022-10-22T03:19:16;99850.89;;;12.45;75.63
72096;BME280;59968;51.084;16.748;2022-10-22T03:21:51;99855.64;;;12.45;75.57
72096;BME280;59968;51.084;16.748;2022-10-22T03:24:30;99850.42;;;12.43;75.62
72096;BME280;59968;51.084;16.748;2022-10-22T03:27:01;99857.04;;;12.43;75.69
72096;BME280;59968;51.084;16.748;2022-10-22T03:29:30;99857.45;;;12.45;75.71
72096;BME280;59968;51.084;16.748;2022-10-22T03:31:59;99860.78;;;12.48;75.68
72096;BME280;59968;51.084;16.748;2022-10-22T03:34:28;99865.51;;;12.49;75.73
72096;BME280;59968;51.084;16.748;2022-10-22T03:36:58;99865.40;;;12.51;75.71
72096;BME280;59968;51.084;16.748;2022-10-22T03:39:32;99866.23;;;12.49;75.81
72096;BME280;59968;51.084;16.748;2022-10-22T03:42:02;99860.46;;;12.45;76.09
72096;BME280;59968;51.084;16.748;2022-10-22T03:44:32;99859.92;;;12.47;76.04
72096;BME280;59968;51.084;16.748;2022-10-22T03:47:00;99862.55;;;12.53;75.91
72096;BME280;59968;51.084;16.748;2022-10-22T03:49:29;99858.54;;;12.54;75.79
72096;BME280;59968;51.084;16.748;2022-10-22T03:52:07;99864.82;;;12.57;75.80
72096;BME280;59968;51.084;16.748;2022-10-22T03:54:36;99867.34;;;12.60;75.80
72096;BME280;59968;51.084;16.748;2022-10-22T03:57:09;99869.98;;;12.63;75.76
72096;BME280;59968;51.084;16.748;2022-10-22T03:59:41;99870.27;;;12.64;75.64
72096;BME280;59968;51.084;16.748;2022-10-22T04:02:10;99863.66;;;12.63;75.61
72096;BME280;59968;51.084;16.748;2022-10-22T04:04:39;99861.58;;;12.63;75.53
72096;BME280;59968;51.084;16.748;2022-10-22T04:07:07;99861.95;;;12.62;75.67
72096;BME280;59968;51.084;16.748;2022-10-22T04:09:36;99861.63;;;12.60;75.71
72096;BME280;59968;51.084;16.748;2022-10-22T04:12:04;99862.30;;;12.60;75.79
72096;BME280;59968;51.084;16.748;2022-10-22T04:14:34;99854.86;;;12.59;75.85
72096;BME280;59968;51.084;16.748;2022-10-22T04:17:02;99846.88;;;12.61;75.84
72096;BME280;59968;51.084;16.748;2022-10-22T04:19:30;99839.20;;;12.60;76.00
72096;BME280;59968;51.084;16.748;2022-10-22T04:21:59;99845.67;;;12.61;76.09
72096;BME280;59968;51.084;16.748;2022-10-22T04:24:29;99846.23;;;12.60;76.11
72096;BME280;59968;51.084;16.748;2022-10-22T04:26:58;99848.77;;;12.60;76.05
72096;BME280;59968;51.084;16.748;2022-10-22T04:29:26;99849.48;;;12.61;75.96
72096;BME280;59968;51.084;16.748;2022-10-22T04:31:55;99853.80;;;12.56;75.97
72096;BME280;59968;51.084;16.748;2022-10-22T04:34:28;99850.73;;;12.53;76.11
72096;BME280;59968;51.084;16.748;2022-10-22T04:36:56;99849.92;;;12.52;76.04
72096;BME280;59968;51.084;16.748;2022-10-22T04:39:25;99853.14;;;12.48;76.18
72096;BME280;59968;51.084;16.748;2022-10-22T04:41:53;99860.23;;;12.47;76.18
72096;BME280;59968;51.084;16.748;2022-10-22T04:44:21;99868.30;;;12.44;76.21
72096;BME280;59968;51.084;16.748;2022-10-22T04:46:50;99885.50;;;12.44;76.18
72096;BME280;59968;51.084;16.748;2022-10-22T04:49:18;99890.80;;;12.42;76.48
72096;BME280;59968;51.084;16.748;2022-10-22T04:51:46;99884.10;;;12.39;76.64
72096;BME280;59968;51.084;16.748;2022-10-22T04:54:14;99876.58;;;12.38;76.65
72096;BME280;59968;51.084;16.748;2022-10-22T04:56:42;99875.59;;;12.38;76.71
72096;BME280;59968;51.084;16.748;2022-10-22T04:59:11;99872.86;;;12.37;76.80
72096;BME280;59968;51.084;16.748;2022-10-22T05:01:43;99871.00;;;12.37;76.73
72096;BME280;59968;51.084;16.748;2022-10-22T05:04:13;99870.42;;;12.36;76.86
72096;BME280;59968;51.084;16.748;2022-10-22T05:06:43;99874.92;;;12.35;76.87
72096;BME280;59968;51.084;16.748;2022-10-22T05:09:17;99874.81;;;12.34;76.94
72096;BME280;59968;51.084;16.748;2022-10-22T05:11:48;99867.14;;;12.33;76.90
72096;BME280;59968;51.084;16.748;2022-10-22T05:14:20;99873.16;;;12.30;77.02
72096;BME280;59968;51.084;16.748;2022-10-22T05:16:50;99884.15;;;12.31;77.12
72096;BME280;59968;51.084;16.748;2022-10-22T05:19:27;99887.55;;;12.30;77.27
72096;BME280;59968;51.084;16.748;2022-10-22T05:22:01;99881.84;;;12.30;77.17
72096;BME280;59968;51.084;16.748;2022-10-22T05:24:31;99881.13;;;12.29;77.36
72096;BME280;59968;51.084;16.748;2022-10-22T05:27:00;99892.64;;;12.29;77.45
72096;BME280;59968;51.084;16.748;2022-10-22T05:29:28;99893.16;;;12.30;77.52
72096;BME280;59968;51.084;16.748;2022-10-22T05:31:57;99901.75;;;12.30;77.62
72096;BME280;59968;51.084;16.748;2022-10-22T05:34:25;99907.70;;;12.31;77.59
72096;BME280;59968;51.084;16.748;2022-10-22T05:36:53;99915.55;;;12.32;77.79
72096;BME280;59968;51.084;16.748;2022-10-22T05:39:21;99922.98;;;12.32;77.93
72096;BME280;59968;51.084;16.748;2022-10-22T05:41:49;99932.58;;;12.36;78.04
72096;BME280;59968;51.084;16.748;2022-10-22T05:44:17;99935.30;;;12.41;78.12
72096;BME280;59968;51.084;16.748;2022-10-22T05:46:45;99938.54;;;12.48;77.99
72096;BME280;59968;51.084;16.748;2022-10-22T05:49:14;99941.86;;;12.55;77.98
72096;BME280;59968;51.084;16.748;2022-10-22T05:51:43;99934.70;;;12.64;77.76
72096;BME280;59968;51.084;16.748;2022-10-22T05:54:17;99934.70;;;12.71;77.65
72096;BME280;59968;51.084;16.748;2022-10-22T05:56:46;99942.48;;;12.82;77.48
72096;BME280;59968;51.084;16.748;2022-10-22T05:59:14;99942.12;;;12.85;77.62
72096;BME280;59968;51.084;16.748;2022-10-22T06:01:43;99939.92;;;12.90;77.61
72096;BME280;59968;51.084;16.748;2022-10-22T06:04:13;99942.81;;;12.94;77.43
72096;BME280;59968;51.084;16.748;2022-10-22T06:06:46;99942.23;;;13.02;77.25
72096;BME280;59968;51.084;16.748;2022-10-22T06:09:20;99945.04;;;13.11;77.17
72096;BME280;59968;51.084;16.748;2022-10-22T06:11:51;99948.72;;;13.19;77.02
72096;BME280;59968;51.084;16.748;2022-10-22T06:14:22;99940.54;;;13.25;76.91
72096;BME280;59968;51.084;16.748;2022-10-22T06:16:52;99928.27;;;13.31;76.74
72096;BME280;59968;51.084;16.748;2022-10-22T06:19:22;99927.73;;;13.36;76.57
72096;BME280;59968;51.084;16.748;2022-10-22T06:21:55;99931.45;;;13.40;76.49
72096;BME280;59968;51.084;16.748;2022-10-22T06:24:24;99925.72;;;13.44;76.42
72096;BME280;59968;51.084;16.748;2022-10-22T06:26:52;99925.79;;;13.49;76.16
72096;BME280;59968;51.084;16.748;2022-10-22T06:29:22;99935.30;;;13.56;76.15
72096;BME280;59968;51.084;16.748;2022-10-22T06:31:51;99932.86;;;13.58;75.96
72096;BME280;59968;51.084;16.748;2022-10-22T06:34:21;99930.64;;;13.59;75.84
72096;BME280;59968;51.084;16.748;2022-10-22T06:36:49;99927.29;;;13.62;75.92
72096;BME280;59968;51.084;16.748;2022-10-22T06:39:20;99926.36;;;13.66;75.83
72096;BME280;59968;51.084;16.748;2022-10-22T06:41:52;99930.23;;;13.67;75.84
72096;BME280;59968;51.084;16.748;2022-10-22T06:44:21;99932.23;;;13.69;75.75
72096;BME280;59968;51.084;16.748;2022-10-22T06:46:51;99929.86;;;13.72;75.65
72096;BME280;59968;51.084;16.748;2022-10-22T06:49:20;99931.70;;;13.73;75.41
72096;BME280;59968;51.084;16.748;2022-10-22T06:51:54;99924.88;;;13.70;75.67
72096;BME280;59968;51.084;16.748;2022-10-22T06:54:25;99925.23;;;13.74;75.50
72096;BME280;59968;51.084;16.748;2022-10-22T06:56:57;99931.73;;;13.77;75.32
72096;BME280;59968;51.084;16.748;2022-10-22T06:59:30;99936.48;;;13.79;75.51
72096;BME280;59968;51.084;16.748;2022-10-22T07:02:01;99936.83;;;13.80;75.51
72096;BME280;59968;51.084;16.748;2022-10-22T07:04:30;99932.77;;;13.83;75.55
72096;BME280;59968;51.084;16.748;2022-10-22T07:07:00;99941.40;;;13.87;75.49
72096;BME280;59968;51.084;16.748;2022-10-22T07:09:29;99951.00;;;13.92;75.45
72096;BME280;59968;51.084;16.748;2022-10-22T07:12:00;99954.40;;;13.96;75.45
72096;BME280;59968;51.084;16.748;2022-10-22T07:14:28;99955.14;;;14.01;75.49
72096;BME280;59968;51.084;16.748;2022-10-22T07:16:58;99951.19;;;14.07;75.04
72096;BME280;59968;51.084;16.748;2022-10-22T07:19:28;99951.59;;;14.13;74.91
72096;BME280;59968;51.084;16.748;2022-10-22T07:22:00;99952.56;;;14.16;75.08
72096;BME280;59968;51.084;16.748;2022-10-22T07:24:34;99949.60;;;14.20;75.07
72096;BME280;59968;51.084;16.748;2022-10-22T07:27:04;99945.43;;;14.22;75.02
72096;BME280;59968;51.084;16.748;2022-10-22T07:29:40;99953.38;;;14.30;74.77
72096;BME280;59968;51.084;16.748;2022-10-22T07:32:13;99956.70;;;14.35;74.75
72096;BME280;59968;51.084;16.748;2022-10-22T07:34:41;99951.15;;;14.39;74.80
72096;BME280;59968;51.084;16.748;2022-10-22T07:37:11;99953.79;;;14.46;74.63
72096;BME280;59968;51.084;16.748;2022-10-22T07:39:40;99959.67;;;14.53;74.53
72096;BME280;59968;51.084;16.748;2022-10-22T07:42:12;99962.92;;;14.58;74.54
72096;BME280;59968;51.084;16.748;2022-10-22T07:44:44;99959.38;;;14.62;74.53
72096;BME280;59968;51.084;16.748;2022-10-22T07:47:15;99960.02;;;14.65;74.61
72096;BME280;59968;51.084;16.748;2022-10-22T07:49:48;99963.45;;;14.64;74.42
72096;BME280;59968;51.084;16.748;2022-10-22T07:52:17;99961.71;;;14.64;74.53
72096;BME280;59968;51.084;16.748;2022-10-22T07:54:46;99966.63;;;14.66;74.74
72096;BME280;59968;51.084;16.748;2022-10-22T07:57:19;99971.42;;;14.67;74.60
72096;BME280;59968;51.084;16.748;2022-10-22T07:59:50;99971.55;;;14.67;74.44
72096;BME280;59968;51.084;16.748;2022-10-22T08:02:19;99976.48;;;14.65;74.52
72096;BME280;59968;51.084;16.748;2022-10-22T08:04:49;99976.18;;;14.64;74.60
72096;BME280;59968;51.084;16.748;2022-10-22T08:07:25;99978.38;;;14.62;74.65
72096;BME280;59968;51.084;16.748;2022-10-22T08:10:04;99977.95;;;14.62;74.79
72096;BME280;59968;51.084;16.748;2022-10-22T08:12:36;99973.95;;;14.62;74.97
72096;BME280;59968;51.084;16.748;2022-10-22T08:15:08;99971.84;;;14.63;74.90
72096;BME280;59968;51.084;16.748;2022-10-22T08:17:38;99974.59;;;14.65;75.07
72096;BME280;59968;51.084;16.748;2022-10-22T08:20:08;99978.30;;;14.67;75.09
72096;BME280;59968;51.084;16.748;2022-10-22T08:22:38;99975.84;;;14.69;75.23
72096;BME280;59968;51.084;16.748;2022-10-22T08:25:07;99976.09;;;14.72;75.31
72096;BME280;59968;51.084;16.748;2022-10-22T08:27:37;99982.34;;;14.76;75.30
72096;BME280;59968;51.084;16.748;2022-10-22T08:30:07;99985.06;;;14.76;75.25
72096;BME280;59968;51.084;16.748;2022-10-22T08:32:36;99998.52;;;14.82;75.46
72096;BME280;59968;51.084;16.748;2022-10-22T08:35:05;100007.95;;;14.85;75.71
72096;BME280;59968;51.084;16.748;2022-10-22T08:37:34;100009.69;;;14.90;75.86
72096;BME280;59968;51.084;16.748;2022-10-22T08:40:04;100014.12;;;14.92;76.16
72096;BME280;59968;51.084;16.748;2022-10-22T08:42:49;100015.86;;;14.97;76.26
72096;BME280;59968;51.084;16.748;2022-10-22T08:45:42;100007.73;;;15.00;76.41
72096;BME280;59968;51.084;16.748;2022-10-22T08:50:49;100003.77;;;15.04;76.82
72096;BME280;59968;51.084;16.748;2022-10-22T08:56:13;99997.14;;;15.11;77.02
72096;BME280;59968;51.084;16.748;2022-10-22T08:58:49;99996.35;;;15.15;77.05
72096;BME280;59968;51.084;16.748;2022-10-22T09:01:26;100002.04;;;15.17;77.03
72096;BME280;59968;51.084;16.748;2022-10-22T09:06:29;99996.05;;;15.18;77.43
72096;BME280;59968;51.084;16.748;2022-10-22T09:09:04;99998.83;;;15.19;77.69
72096;BME280;59968;51.084;16.748;2022-10-22T09:11:52;100007.80;;;15.21;77.99
72096;BME280;59968;51.084;16.748;2022-10-22T09:14:30;100011.14;;;15.20;77.98
72096;BME280;59968;51.084;16.748;2022-10-22T09:17:24;100011.29;;;15.24;77.89
72096;BME280;59968;51.084;16.748;2022-10-22T09:20:10;100020.05;;;15.26;78.14
72096;BME280;59968;51.084;16.748;2022-10-22T09:25:36;100032.03;;;15.28;78.11
72096;BME280;59968;51.084;16.748;2022-10-22T09:28:08;100033.95;;;15.29;77.89
72096;BME280;59968;51.084;16.748;2022-10-22T09:30:37;100031.26;;;15.29;78.05
72096;BME280;59968;51.084;16.748;2022-10-22T09:33:40;100028.59;;;15.29;78.04
72096;BME280;59968;51.084;16.748;2022-10-22T09:36:14;100028.48;;;15.33;77.90
72096;BME280;59968;51.084;16.748;2022-10-22T09:38:46;100019.46;;;15.32;77.85
72096;BME280;59968;51.084;16.748;2022-10-22T09:41:17;100026.38;;;15.39;77.86
72096;BME280;59968;51.084;16.748;2022-10-22T09:43:47;100029.25;;;15.43;77.81
72096;BME280;59968;51.084;16.748;2022-10-22T09:46:21;100026.92;;;15.45;77.75
72096;BME280;59968;51.084;16.748;2022-10-22T09:51:53;100020.77;;;15.48;77.25
72096;BME280;59968;51.084;16.748;2022-10-22T09:54:44;100018.63;;;15.53;77.50
72096;BME280;59968;51.084;16.748;2022-10-22T09:57:14;100019.94;;;15.61;77.48
72096;BME280;59968;51.084;16.748;2022-10-22T09:59:49;100024.98;;;15.67;77.52
72096;BME280;59968;51.084;16.748;2022-10-22T10:02:25;100027.66;;;15.72;77.43
72096;BME280;59968;51.084;16.748;2022-10-22T10:05:25;100031.02;;;15.77;77.40
72096;BME280;59968;51.084;16.748;2022-10-22T10:07:56;100030.20;;;15.80;77.15
72096;BME280;59968;51.084;16.748;2022-10-22T10:14:01;100028.98;;;15.79;77.22
72096;BME280;59968;51.084;16.748;2022-10-22T10:30:19;100045.10;;;15.77;77.66
72096;BME280;59968;51.084;16.748;2022-10-22T10:36:01;100032.06;;;15.86;77.70
72096;BME280;59968;51.084;16.748;2022-10-22T11:07:30;100032.58;;;16.22;77.96
72096;BME280;59968;51.084;16.748;2022-10-22T11:10:28;100027.60;;;16.30;76.82
72096;BME280;59968;51.084;16.748;2022-10-22T11:13:12;100025.07;;;16.37;76.63
72096;BME280;59968;51.084;16.748;2022-10-22T11:15:46;100024.49;;;16.42;75.94
72096;BME280;59968;51.084;16.748;2022-10-22T11:18:31;100024.94;;;16.41;75.95
72096;BME280;59968;51.084;16.748;2022-10-22T11:21:15;100020.95;;;16.53;75.62
72096;BME280;59968;51.084;16.748;2022-10-22T11:23:55;100011.42;;;16.58;75.72
72096;BME280;59968;51.084;16.748;2022-10-22T11:26:46;100016.43;;;16.69;75.71
72096;BME280;59968;51.084;16.748;2022-10-22T11:29:29;100026.09;;;16.75;75.92
72096;BME280;59968;51.084;16.748;2022-10-22T11:32:01;100030.88;;;16.84;75.60
72096;BME280;59968;51.084;16.748;2022-10-22T11:34:44;100035.08;;;16.87;75.34
72096;BME280;59968;51.084;16.748;2022-10-22T11:37:14;100035.20;;;16.91;75.29
72096;BME280;59968;51.084;16.748;2022-10-22T11:39:51;100042.20;;;16.93;74.91
72096;BME280;59968;51.084;16.748;2022-10-22T11:42:29;100039.35;;;16.89;75.51
72096;BME280;59968;51.084;16.748;2022-10-22T11:45:28;100049.23;;;16.94;74.89
72096;BME280;59968;51.084;16.748;2022-10-22T11:47:57;100050.73;;;16.93;74.39
72096;BME280;59968;51.084;16.748;2022-10-22T11:51:27;100043.39;;;16.92;73.84
72096;BME280;59968;51.084;16.748;2022-10-22T11:53:39;100033.63;;;16.91;74.11
72096;BME280;59968;51.084;16.748;2022-10-22T11:58:41;100036.90;;;16.89;74.47
72096;BME280;59968;51.084;16.748;2022-10-22T12:03:43;100030.19;;;16.92;74.39
72096;BME280;59968;51.084;16.748;2022-10-22T12:06:20;100026.43;;;16.90;74.76
72096;BME280;59968;51.084;16.748;2022-10-22T12:11:45;100020.09;;;16.86;74.76
72096;BME280;59968;51.084;16.748;2022-10-22T12:19:37;100020.73;;;16.66;75.58
72096;BME280;59968;51.084;16.748;2022-10-22T12:24:51;100025.34;;;16.55;76.26
72096;BME280;59968;51.084;16.748;2022-10-22T12:30:17;100022.63;;;16.46;76.72
72096;BME280;59968;51.084;16.748;2022-10-22T12:32:46;100028.21;;;16.45;76.89
72096;BME280;59968;51.084;16.748;2022-10-22T12:35:18;100025.75;;;16.45;77.01
72096;BME280;59968;51.084;16.748;2022-10-22T12:37:53;100027.70;;;16.43;77.06
72096;BME280;59968;51.084;16.748;2022-10-22T12:40:25;100023.70;;;16.41;77.16
72096;BME280;59968;51.084;16.748;2022-10-22T12:43:00;100026.35;;;16.38;77.15
72096;BME280;59968;51.084;16.748;2022-10-22T12:45:31;100023.84;;;16.30;77.32
72096;BME280;59968;51.084;16.748;2022-10-22T12:48:04;100028.55;;;16.27;77.47
72096;BME280;59968;51.084;16.748;2022-10-22T12:50:35;100029.27;;;16.21;77.24
72096;BME280;59968;51.084;16.748;2022-10-22T12:55:48;100018.37;;;16.12;77.95
72096;BME280;59968;51.084;16.748;2022-10-22T12:58:20;100018.70;;;16.07;78.22
72096;BME280;59968;51.084;16.748;2022-10-22T13:00:56;100018.66;;;16.03;78.20
72096;BME280;59968;51.084;16.748;2022-10-22T13:03:40;100025.79;;;16.01;78.61
72096;BME280;59968;51.084;16.748;2022-10-22T13:09:01;100022.71;;;15.99;78.87
72096;BME280;59968;51.084;16.748;2022-10-22T13:11:40;100023.86;;;15.97;79.11
72096;BME280;59968;51.084;16.748;2022-10-22T13:19:38;100031.33;;;16.01;79.96
72096;BME280;59968;51.084;16.748;2022-10-22T13:25:19;100035.11;;;16.05;80.07
72096;BME280;59968;51.084;16.748;2022-10-22T13:27:49;100038.21;;;16.07;80.11
72096;BME280;59968;51.084;16.748;2022-10-22T13:30:23;100032.00;;;16.11;80.12
72096;BME280;59968;51.084;16.748;2022-10-22T13:33:18;100034.55;;;16.12;80.05
72096;BME280;59968;51.084;16.748;2022-10-22T13:35:49;100034.13;;;16.13;80.52
72096;BME280;59968;51.084;16.748;2022-10-22T13:38:21;100039.96;;;16.14;80.46
72096;BME280;59968;51.084;16.748;2022-10-22T13:40:52;100040.28;;;16.17;80.60
72096;BME280;59968;51.084;16.748;2022-10-22T13:43:22;100042.02;;;16.14;80.79
72096;BME280;59968;51.084;16.748;2022-10-22T13:45:57;100043.60;;;16.12;81.08
72096;BME280;59968;51.084;16.748;2022-10-22T13:48:27;100041.71;;;16.12;81.19
72096;BME280;59968;51.084;16.748;2022-10-22T13:50:59;100044.32;;;16.10;81.37
72096;BME280;59968;51.084;16.748;2022-10-22T13:53:29;100046.84;;;16.10;81.49
72096;BME280;59968;51.084;16.748;2022-10-22T13:55:57;100048.73;;;16.07;81.62
72096;BME280;59968;51.084;16.748;2022-10-22T13:58:26;100046.68;;;16.05;81.96
72096;BME280;59968;51.084;16.748;2022-10-22T14:00:58;100051.95;;;16.01;82.19
72096;BME280;59968;51.084;16.748;2022-10-22T14:03:32;100057.43;;;15.96;82.40
72096;BME280;59968;51.084;16.748;2022-10-22T14:06:10;100063.52;;;15.90;82.53
72096;BME280;59968;51.084;16.748;2022-10-22T14:08:40;100063.33;;;15.86;82.88
72096;BME280;59968;51.084;16.748;2022-10-22T14:11:12;100062.45;;;15.82;83.13
72096;BME280;59968;51.084;16.748;2022-10-22T14:13:40;100064.81;;;15.79;83.37
72096;BME280;59968;51.084;16.748;2022-10-22T14:16:16;100062.92;;;15.77;83.58
72096;BME280;59968;51.084;16.748;2022-10-22T14:18:46;100068.32;;;15.75;83.83
72096;BME280;59968;51.084;16.748;2022-10-22T14:21:17;100069.64;;;15.71;84.12
72096;BME280;59968;51.084;16.748;2022-10-22T14:23:47;100068.70;;;15.69;84.14
72096;BME280;59968;51.084;16.748;2022-10-22T14:26:24;100073.05;;;15.67;84.52
72096;BME280;59968;51.084;16.748;2022-10-22T14:28:56;100078.39;;;15.67;84.62
72096;BME280;59968;51.084;16.748;2022-10-22T14:31:43;100076.02;;;15.67;84.96
72096;BME280;59968;51.084;16.748;2022-10-22T14:34:14;100071.45;;;15.66;85.02
72096;BME280;59968;51.084;16.748;2022-10-22T14:36:43;100076.23;;;15.66;85.12
72096;BME280;59968;51.084;16.748;2022-10-22T14:39:13;100078.17;;;15.67;85.21
72096;BME280;59968;51.084;16.748;2022-10-22T14:41:42;100079.19;;;15.70;85.38
72096;BME280;59968;51.084;16.748;2022-10-22T14:44:11;100083.06;;;15.71;85.14
72096;BME280;59968;51.084;16.748;2022-10-22T14:46:42;100081.63;;;15.70;85.42
72096;BME280;59968;51.084;16.748;2022-10-22T14:49:13;100082.84;;;15.68;85.22
72096;BME280;59968;51.084;16.748;2022-10-22T14:51:42;100083.70;;;15.68;85.30
72096;BME280;59968;51.084;16.748;2022-10-22T14:54:10;100086.55;;;15.67;85.22
72096;BME280;59968;51.084;16.748;2022-10-22T14:56:41;100087.73;;;15.67;85.46
72096;BME280;59968;51.084;16.748;2022-10-22T14:59:09;100087.98;;;15.64;85.54
72096;BME280;59968;51.084;16.748;2022-10-22T15:01:38;100093.30;;;15.62;85.83
72096;BME280;59968;51.084;16.748;2022-10-22T15:04:08;100088.56;;;15.60;85.82
72096;BME280;59968;51.084;16.748;2022-10-22T15:06:40;100089.20;;;15.60;85.96
72096;BME280;59968;51.084;16.748;2022-10-22T15:09:09;100089.20;;;15.58;86.06
72096;BME280;59968;51.084;16.748;2022-10-22T15:11:39;100093.23;;;15.58;86.21
72096;BME280;59968;51.084;16.748;2022-10-22T15:14:09;100089.51;;;15.55;86.13